Time;durP1;ratioP1;P1;durP2;ratioP2;P2;SDS_P1;SDS_P2;PMS_P1;PMS_P2;Temp;Humidity;BMP_temperature;BMP_pressure;BME280_temperature;BME280_humidity;BME280_pressure;Samples;Min_cycle;Max_cycle;Signal;HPM_P1;HPM_P2
2020/12/31 00:02:12;;;;;;;2.80;2.15;;;3.20;75.00;;;;;;4978632;28;20069;-68
2020/12/31 00:04:39;;;;;;;2.40;2.20;;;3.20;74.90;;;;;;4979577;28;20573;-68
2020/12/31 00:07:04;;;;;;;2.40;2.15;;;3.20;74.80;;;;;;4980337;28;20035;-67
2020/12/31 00:09:30;;;;;;;2.78;2.08;;;3.20;74.70;;;;;;4980184;28;20385;-67
2020/12/31 00:11:56;;;;;;;3.75;2.60;;;3.20;74.60;;;;;;4978841;28;20108;-67
2020/12/31 00:14:22;;;;;;;2.72;2.40;;;3.10;74.60;;;;;;4979370;28;20558;-66
2020/12/31 00:16:48;;;;;;;2.50;2.20;;;3.10;74.50;;;;;;4980875;28;20048;-67
2020/12/31 00:19:13;;;;;;;3.53;2.40;;;3.10;74.50;;;;;;4976393;28;20097;-65
2020/12/31 00:21:39;;;;;;;2.28;2.05;;;3.10;74.50;;;;;;4973868;28;20031;-68
2020/12/31 00:24:05;;;;;;;2.63;1.92;;;3.10;74.40;;;;;;4976623;28;20034;-68
2020/12/31 00:26:31;;;;;;;3.00;2.40;;;3.10;74.40;;;;;;4975810;28;20457;-68
2020/12/31 00:28:56;;;;;;;3.17;2.50;;;3.10;74.40;;;;;;4975179;28;20399;-68
2020/12/31 00:31:22;;;;;;;3.10;1.95;;;3.10;74.30;;;;;;4975666;28;20121;-67
2020/12/31 00:33:48;;;;;;;2.38;2.03;;;3.00;74.30;;;;;;4984792;28;20584;-66
2020/12/31 00:36:13;;;;;;;2.20;1.92;;;3.00;74.40;;;;;;4974424;28;20118;-67
2020/12/31 00:38:39;;;;;;;2.58;2.10;;;3.00;74.30;;;;;;4972890;28;20050;-67
2020/12/31 00:41:04;;;;;;;2.42;2.22;;;3.00;74.40;;;;;;4972742;28;20125;-67
2020/12/31 00:43:30;;;;;;;2.55;2.35;;;3.00;74.30;;;;;;4977071;28;20034;-67
2020/12/31 00:45:55;;;;;;;3.70;2.75;;;2.90;74.30;;;;;;4979259;28;20472;-67
2020/12/31 00:48:21;;;;;;;3.75;3.00;;;2.90;74.30;;;;;;4975955;28;20039;-68
2020/12/31 00:50:47;;;;;;;3.80;2.97;;;2.90;74.30;;;;;;4974608;28;20047;-67
2020/12/31 00:53:13;;;;;;;3.53;2.72;;;2.80;74.30;;;;;;4977757;28;20509;-67
2020/12/31 00:55:38;;;;;;;3.38;2.60;;;2.80;74.50;;;;;;4979724;28;20053;-67
2020/12/31 00:58:05;;;;;;;3.08;2.47;;;2.80;74.60;;;;;;4978819;28;20046;-68
2020/12/31 01:00:31;;;;;;;2.97;2.28;;;2.70;74.60;;;;;;4977186;28;20521;-67
2020/12/31 01:02:58;;;;;;;3.33;2.47;;;2.70;75.60;;;;;;4979440;28;20081;-68
2020/12/31 01:05:23;;;;;;;2.72;2.47;;;2.70;74.90;;;;;;4979579;28;20062;-67
2020/12/31 01:07:51;;;;;;;4.38;3.60;;;2.60;75.00;;;;;;4978241;28;20085;-67
2020/12/31 01:10:17;;;;;;;3.78;3.38;;;2.60;75.10;;;;;;4978396;28;20057;-67
2020/12/31 01:12:43;;;;;;;5.32;3.80;;;2.60;75.20;;;;;;4977171;28;20572;-65
2020/12/31 01:15:08;;;;;;;5.50;4.10;;;2.50;75.10;;;;;;4978910;28;21522;-68
2020/12/31 01:17:34;;;;;;;5.25;3.97;;;2.50;75.20;;;;;;4977055;28;20034;-68
2020/12/31 01:19:59;;;;;;;4.75;3.70;;;2.50;75.30;;;;;;4978213;28;20473;-67
2020/12/31 01:22:26;;;;;;;3.65;3.08;;;2.50;75.40;;;;;;4975743;28;20490;-67
2020/12/31 01:24:52;;;;;;;3.17;2.88;;;2.50;75.50;;;;;;4980007;28;20030;-66
2020/12/31 01:27:17;;;;;;;3.58;2.80;;;2.50;75.60;;;;;;4978428;28;20034;-64
2020/12/31 01:29:43;;;;;;;3.78;3.08;;;2.60;75.70;;;;;;4976723;28;20037;-66
2020/12/31 01:32:09;;;;;;;4.10;3.03;;;2.60;75.60;;;;;;4977069;28;20038;-67
2020/12/31 01:34:36;;;;;;;3.42;3.13;;;2.60;75.50;;;;;;4975551;28;20038;-66
2020/12/31 01:37:02;;;;;;;3.03;2.47;;;2.60;75.50;;;;;;4976324;28;20031;-67
2020/12/31 01:39:28;;;;;;;3.20;2.65;;;2.60;75.50;;;;;;4973853;28;20038;-66
2020/12/31 01:41:53;;;;;;;2.67;2.47;;;2.70;75.40;;;;;;4977173;28;20049;-66
2020/12/31 01:44:19;;;;;;;4.20;2.78;;;2.70;75.50;;;;;;4977912;28;20134;-67
2020/12/31 01:46:46;;;;;;;4.05;3.10;;;2.70;75.50;;;;;;4974286;28;20046;-68
2020/12/31 01:49:16;;;;;;;3.55;2.92;;;2.70;76.40;;;;;;4980218;28;20038;-66
2020/12/31 01:51:44;;;;;;;3.35;3.03;;;2.70;75.70;;;;;;4976711;28;20042;-66
2020/12/31 01:54:11;;;;;;;3.35;2.92;;;2.70;75.70;;;;;;4976010;28;20058;-66
2020/12/31 01:56:37;;;;;;;3.78;3.10;;;2.70;75.90;;;;;;4975653;28;20122;-66
2020/12/31 01:59:03;;;;;;;4.10;3.33;;;2.70;76.00;;;;;;4975264;28;20125;-66
2020/12/31 02:01:29;;;;;;;3.80;3.40;;;2.70;76.10;;;;;;4976266;28;20034;-66
2020/12/31 02:03:57;;;;;;;3.92;3.33;;;2.70;77.00;;;;;;4977929;28;20034;-66
2020/12/31 02:06:23;;;;;;;5.35;3.60;;;2.70;76.40;;;;;;4976917;28;20138;-66
2020/12/31 02:08:50;;;;;;;6.43;3.72;;;2.70;76.60;;;;;;4976041;28;20649;-67
2020/12/31 02:11:17;;;;;;;6.80;4.00;;;2.70;76.60;;;;;;4977674;28;20129;-65
2020/12/31 02:13:44;;;;;;;4.72;3.45;;;2.70;76.70;;;;;;4977593;28;20041;-66
2020/12/31 02:16:17;;;;;;;5.20;4.00;;;2.70;77.60;;;;;;4979949;28;20065;-66
2020/12/31 02:18:54;;;;;;;5.13;3.95;;;2.70;77.10;;;;;;4977567;28;20034;-66
2020/12/31 02:21:23;;;;;;;4.38;3.65;;;2.70;77.10;;;;;;4976131;28;20379;-66
2020/12/31 02:23:49;;;;;;;5.55;4.15;;;2.80;77.10;;;;;;4978199;28;20039;-66
2020/12/31 02:26:14;;;;;;;4.93;3.63;;;2.70;77.10;;;;;;4978107;28;20403;-66
2020/12/31 02:28:40;;;;;;;5.07;3.90;;;2.80;77.20;;;;;;4980552;28;20399;-67
2020/12/31 02:31:06;;;;;;;4.60;4.10;;;2.80;77.30;;;;;;4978894;28;20042;-66
2020/12/31 02:33:31;;;;;;;5.13;4.32;;;2.80;77.30;;;;;;4980263;28;20212;-67
2020/12/31 02:35:57;;;;;;;5.43;4.30;;;2.80;77.40;;;;;;4979986;28;20045;-66
2020/12/31 02:38:23;;;;;;;5.65;4.30;;;2.80;77.30;;;;;;4979110;28;20080;-67
2020/12/31 02:40:49;;;;;;;5.32;3.83;;;2.80;77.30;;;;;;4979735;28;20165;-66
2020/12/31 02:43:14;;;;;;;4.93;4.43;;;2.80;77.40;;;;;;4981719;28;20030;-67
2020/12/31 02:45:40;;;;;;;4.80;3.97;;;2.90;77.40;;;;;;4980572;28;20112;-64
2020/12/31 02:48:06;;;;;;;4.95;4.07;;;2.90;77.40;;;;;;4979366;28;20053;-68
2020/12/31 02:50:31;;;;;;;5.47;4.53;;;2.90;77.40;;;;;;4978804;28;20038;-66
2020/12/31 02:52:57;;;;;;;6.45;4.68;;;2.90;77.40;;;;;;4979710;28;20130;-66
2020/12/31 02:55:22;;;;;;;5.40;4.40;;;2.90;77.40;;;;;;4979444;28;20051;-66
2020/12/31 02:57:48;;;;;;;6.70;4.70;;;2.90;77.40;;;;;;4980720;28;20039;-66
2020/12/31 03:00:13;;;;;;;5.93;4.57;;;2.90;77.40;;;;;;4978052;28;20086;-66
2020/12/31 03:02:39;;;;;;;5.60;4.55;;;2.90;77.30;;;;;;4984268;28;20035;-66
2020/12/31 03:05:04;;;;;;;6.65;4.78;;;2.90;77.30;;;;;;4979636;28;20519;-66
2020/12/31 03:07:30;;;;;;;6.32;4.90;;;2.90;77.40;;;;;;4979782;28;20027;-66
2020/12/31 03:09:56;;;;;;;6.57;5.07;;;2.90;77.30;;;;;;4980546;28;20050;-66
2020/12/31 03:12:21;;;;;;;7.28;5.07;;;2.90;77.30;;;;;;4979924;28;20459;-66
2020/12/31 03:14:47;;;;;;;6.32;4.90;;;2.90;77.30;;;;;;4979948;28;20100;-66
2020/12/31 03:17:12;;;;;;;6.65;4.80;;;2.90;77.20;;;;;;4980215;28;20031;-67
2020/12/31 03:19:38;;;;;;;6.47;4.70;;;2.90;77.20;;;;;;4978703;28;20057;-66
2020/12/31 03:22:03;;;;;;;5.90;4.68;;;2.90;77.20;;;;;;4979223;28;20161;-66
2020/12/31 03:24:29;;;;;;;7.97;5.28;;;2.90;77.10;;;;;;4978838;28;20061;-66
2020/12/31 03:26:54;;;;;;;5.90;4.78;;;2.90;77.10;;;;;;4980152;28;20039;-66
2020/12/31 03:29:20;;;;;;;5.80;4.50;;;2.90;77.10;;;;;;4979512;28;20658;-66
2020/12/31 03:31:46;;;;;;;6.20;4.50;;;2.90;77.10;;;;;;4978386;28;20078;-66
2020/12/31 03:34:11;;;;;;;6.35;4.70;;;2.90;77.00;;;;;;4981215;28;20045;-66
2020/12/31 03:36:37;;;;;;;6.88;5.10;;;2.90;76.80;;;;;;4980078;28;20066;-66
2020/12/31 03:39:03;;;;;;;5.10;4.35;;;2.90;76.60;;;;;;4979857;28;20034;-67
2020/12/31 03:41:28;;;;;;;6.78;4.65;;;2.90;76.30;;;;;;4974374;28;20526;-66
2020/12/31 03:43:54;;;;;;;5.65;4.57;;;2.90;76.20;;;;;;4979545;28;20128;-67
2020/12/31 03:46:19;;;;;;;6.70;5.00;;;2.90;76.90;;;;;;4980276;28;20514;-66
2020/12/31 03:48:45;;;;;;;6.05;4.78;;;2.80;76.00;;;;;;4979044;28;20026;-66
2020/12/31 03:51:10;;;;;;;7.15;4.85;;;2.80;76.00;;;;;;4976902;28;20044;-67
2020/12/31 03:53:36;;;;;;;6.10;4.60;;;2.80;75.70;;;;;;4979183;28;20030;-67
2020/12/31 03:56:02;;;;;;;7.07;4.82;;;2.80;75.70;;;;;;4978891;28;20584;-66
2020/12/31 03:58:27;;;;;;;6.70;4.82;;;2.80;75.70;;;;;;4978520;28;20037;-67
2020/12/31 04:00:53;;;;;;;8.25;5.85;;;2.70;75.70;;;;;;4978988;28;20039;-67
2020/12/31 04:03:18;;;;;;;8.25;5.50;;;2.70;75.80;;;;;;4977325;28;20039;-68
2020/12/31 04:05:44;;;;;;;9.40;5.97;;;2.70;75.80;;;;;;4979638;28;20043;-66
2020/12/31 04:08:09;;;;;;;9.13;5.78;;;2.70;75.50;;;;;;4978950;28;20039;-67
2020/12/31 04:10:35;;;;;;;10.95;6.32;;;2.60;75.40;;;;;;4977718;28;20486;-67
2020/12/31 04:13:01;;;;;;;12.23;6.90;;;2.60;75.60;;;;;;4977980;28;20058;-68
2020/12/31 04:15:26;;;;;;;13.85;6.38;;;2.50;75.70;;;;;;4979437;28;20701;-66
2020/12/31 04:17:52;;;;;;;9.80;6.05;;;2.50;75.90;;;;;;4979145;28;20066;-67
2020/12/31 04:20:18;;;;;;;9.98;6.13;;;2.40;75.80;;;;;;4989703;28;20057;-67
2020/12/31 04:22:43;;;;;;;9.57;5.90;;;2.40;75.90;;;;;;4976836;28;20041;-67
2020/12/31 04:25:09;;;;;;;7.53;5.53;;;2.30;75.70;;;;;;4978472;28;20038;-67
2020/12/31 04:27:34;;;;;;;6.60;5.03;;;2.30;75.70;;;;;;4975268;28;20047;-67
2020/12/31 04:30:00;;;;;;;6.13;4.82;;;2.20;75.80;;;;;;4976593;28;20040;-67
2020/12/31 04:32:25;;;;;;;7.18;4.90;;;2.10;75.80;;;;;;4974262;28;20034;-66
2020/12/31 04:34:51;;;;;;;7.13;5.00;;;2.10;75.90;;;;;;4973725;28;20121;-67
2020/12/31 04:37:17;;;;;;;6.88;5.03;;;2.10;75.80;;;;;;4977310;28;20038;-67
2020/12/31 04:39:42;;;;;;;8.90;5.43;;;2.10;75.80;;;;;;4976744;28;20030;-67
2020/12/31 04:42:08;;;;;;;8.95;5.10;;;2.10;75.60;;;;;;4977346;28;20128;-67
2020/12/31 04:44:35;;;;;;;7.30;5.30;;;2.00;75.50;;;;;;4978610;28;20026;-67
2020/12/31 04:47:03;;;;;;;7.45;5.35;;;2.00;75.70;;;;;;4978600;28;20062;-67
2020/12/31 04:49:39;;;;;;;6.57;5.03;;;2.00;75.90;;;;;;4978849;28;20031;-67
2020/12/31 04:52:05;;;;;;;7.15;5.20;;;1.90;76.00;;;;;;4975299;28;20035;-67
2020/12/31 04:54:32;;;;;;;7.47;5.22;;;1.90;76.10;;;;;;4978165;28;20123;-68
2020/12/31 04:56:57;;;;;;;8.32;5.50;;;1.90;76.00;;;;;;4976396;28;20032;-68
2020/12/31 04:59:23;;;;;;;7.07;5.20;;;1.80;75.70;;;;;;4979331;28;20022;-67
2020/12/31 05:01:49;;;;;;;7.40;5.80;;;1.80;75.70;;;;;;4976543;28;20043;-68
2020/12/31 05:04:14;;;;;;;7.40;5.13;;;1.70;75.70;;;;;;4979099;28;20041;-67
2020/12/31 05:06:44;;;;;;;8.55;6.50;;;1.70;75.90;;;;;;4975887;28;20133;-69
2020/12/31 05:09:17;;;;;;;10.65;5.68;;;1.60;76.00;;;;;;4978515;28;20439;-68
2020/12/31 05:11:51;;;;;;;9.68;6.45;;;1.60;76.00;;;;;;4974632;28;20666;-67
2020/12/31 05:14:48;;;;;;;7.57;5.78;;;1.60;76.00;;;;;;4979748;28;20053;-68
2020/12/31 05:17:16;;;;;;;9.45;5.47;;;1.60;76.10;;;;;;4968318;28;20026;-67
2020/12/31 05:19:43;;;;;;;11.65;6.57;;;1.60;75.90;;;;;;4978401;28;20038;-67
2020/12/31 05:22:19;;;;;;;9.52;6.13;;;1.60;75.90;;;;;;4978093;28;20047;-68
2020/12/31 05:24:47;;;;;;;9.55;6.18;;;1.60;75.60;;;;;;4983137;28;20031;-67
2020/12/31 05:27:16;;;;;;;11.50;7.13;;;1.60;75.50;;;;;;4977524;28;20031;-68
2020/12/31 05:30:08;;;;;;;11.35;6.75;;;1.50;75.60;;;;;;4977391;28;20043;-67
2020/12/31 05:32:39;;;;;;;8.98;6.07;;;1.50;75.70;;;;;;4986119;28;20391;-67
2020/12/31 05:35:16;;;;;;;11.10;6.93;;;1.50;75.70;;;;;;4982955;28;20116;-66
2020/12/31 05:37:41;;;;;;;8.82;6.30;;;1.50;75.70;;;;;;4976558;28;20037;-67
2020/12/31 05:40:12;;;;;;;7.90;5.43;;;1.50;75.70;;;;;;4976290;28;20122;-68
2020/12/31 05:42:39;;;;;;;7.72;5.82;;;1.40;75.70;;;;;;4977802;28;20422;-68
2020/12/31 05:45:15;;;;;;;9.05;6.50;;;1.50;75.80;;;;;;4977858;28;20088;-68
2020/12/31 05:47:46;;;;;;;8.70;6.35;;;1.40;75.80;;;;;;4978105;28;20485;-68
2020/12/31 05:50:23;;;;;;;9.82;6.80;;;1.40;75.70;;;;;;4977718;28;20030;-67
2020/12/31 05:52:49;;;;;;;10.63;7.45;;;1.40;75.70;;;;;;4977613;28;20069;-67
2020/12/31 05:55:16;;;;;;;13.90;7.20;;;1.40;75.80;;;;;;4977373;28;20057;-66
2020/12/31 05:57:51;;;;;;;11.45;8.02;;;1.40;75.80;;;;;;4975386;28;20035;-67
2020/12/31 06:00:20;;;;;;;11.98;8.20;;;1.40;75.70;;;;;;4977059;28;20070;-67
2020/12/31 06:02:50;;;;;;;11.25;7.53;;;1.40;75.80;;;;;;4980399;28;20038;-67
2020/12/31 06:05:18;;;;;;;10.52;7.50;;;1.40;75.80;;;;;;4980281;28;20035;-67
2020/12/31 06:07:44;;;;;;;12.40;8.52;;;1.40;75.80;;;;;;4986243;28;20050;-66
2020/12/31 06:10:16;;;;;;;15.80;9.93;;;1.40;75.70;;;;;;4987004;28;20030;-67
2020/12/31 06:13:02;;;;;;;14.73;9.75;;;1.40;75.70;;;;;;4978960;28;20124;-67
2020/12/31 06:15:32;;;;;;;14.93;9.73;;;1.40;75.90;;;;;;4979865;28;20035;-68
2020/12/31 06:18:01;;;;;;;16.05;9.73;;;1.40;75.80;;;;;;4976254;28;20070;-68
2020/12/31 06:20:28;;;;;;;14.38;9.18;;;1.40;75.70;;;;;;4973493;28;20413;-67
2020/12/31 06:23:08;;;;;;;13.93;9.10;;;1.40;75.70;;;;;;4980171;28;20030;-67
2020/12/31 06:25:37;;;;;;;12.43;8.45;;;1.40;75.50;;;;;;4979621;28;20406;-67
2020/12/31 06:28:32;;;;;;;11.38;7.97;;;1.30;75.50;;;;;;4977047;28;20049;-67
2020/12/31 06:30:58;;;;;;;12.80;7.65;;;1.30;75.50;;;;;;4974267;28;20104;-67
2020/12/31 06:33:28;;;;;;;11.50;7.53;;;1.30;75.50;;;;;;4981754;28;20042;-68
2020/12/31 06:35:59;;;;;;;9.95;6.68;;;1.30;75.60;;;;;;4981600;28;20034;-67
2020/12/31 06:38:35;;;;;;;9.18;6.90;;;1.30;75.70;;;;;;4981555;28;20141;-68
2020/12/31 06:41:02;;;;;;;10.05;6.22;;;1.30;75.70;;;;;;4979560;28;20903;-67
2020/12/31 06:43:33;;;;;;;9.35;6.50;;;1.30;75.70;;;;;;4975872;28;20034;-68
2020/12/31 06:45:59;;;;;;;9.98;6.53;;;1.20;75.70;;;;;;4975776;28;20066;-68
2020/12/31 06:48:27;;;;;;;10.05;6.47;;;1.20;76.60;;;;;;4976560;28;20454;-67
2020/12/31 06:50:57;;;;;;;9.82;6.85;;;1.20;75.70;;;;;;4976164;28;20050;-67
2020/12/31 06:53:39;;;;;;;11.30;7.40;;;1.20;75.80;;;;;;4975638;28;20046;-68
2020/12/31 06:56:07;;;;;;;10.65;6.78;;;1.20;75.90;;;;;;4975400;28;20152;-68
2020/12/31 06:58:33;;;;;;;10.43;6.78;;;1.20;75.70;;;;;;4976304;28;20027;-69
2020/12/31 07:01:00;;;;;;;11.45;7.40;;;1.10;75.50;;;;;;4977206;28;20093;-67
2020/12/31 07:03:44;;;;;;;11.00;7.45;;;1.10;75.50;;;;;;4975707;28;20525;-68
2020/12/31 07:06:22;;;;;;;13.38;7.50;;;1.10;75.30;;;;;;4975356;28;20046;-67
2020/12/31 07:08:55;;;;;;;10.60;7.35;;;1.10;75.50;;;;;;4970043;28;20038;-68
2020/12/31 07:11:39;;;;;;;12.77;7.45;;;1.00;75.60;;;;;;4957598;28;20039;-68
2020/12/31 07:14:24;;;;;;;10.23;6.93;;;1.00;76.00;;;;;;4965303;28;21188;-68
2020/12/31 07:17:06;;;;;;;11.90;7.65;;;1.00;76.30;;;;;;4966807;28;20350;-69
2020/12/31 07:19:37;;;;;;;12.93;8.05;;;1.00;76.20;;;;;;4966187;28;20031;-69
2020/12/31 07:22:10;;;;;;;13.52;8.15;;;1.00;76.50;;;;;;4966263;28;20041;-68
2020/12/31 07:24:59;;;;;;;11.10;7.25;;;1.00;76.60;;;;;;4966693;28;20043;-69
2020/12/31 07:27:25;;;;;;;13.00;7.43;;;1.00;77.10;;;;;;4966830;28;20774;-68
2020/12/31 07:29:57;;;;;;;12.65;7.70;;;1.00;76.80;;;;;;4970245;28;20034;-68
2020/12/31 07:32:47;;;;;;;13.10;7.63;;;1.00;78.00;;;;;;4968089;28;20991;-68
2020/12/31 07:35:27;;;;;;;12.35;7.63;;;1.00;77.50;;;;;;4964579;28;20528;-68
2020/12/31 07:37:53;;;;;;;11.73;7.47;;;1.00;77.40;;;;;;4966099;28;20034;-69
2020/12/31 07:40:32;;;;;;;11.35;7.25;;;1.00;77.20;;;;;;4967343;28;20313;-67
2020/12/31 07:42:59;;;;;;;13.23;8.65;;;1.00;77.40;;;;;;4969269;28;20054;-68
2020/12/31 07:45:29;;;;;;;15.60;8.70;;;1.10;77.30;;;;;;4964821;28;20035;-68
2020/12/31 07:47:56;;;;;;;14.30;8.82;;;1.10;77.50;;;;;;4963964;28;20023;-69
2020/12/31 07:50:22;;;;;;;13.70;8.93;;;1.10;77.40;;;;;;4964828;28;20057;-69
2020/12/31 07:52:48;;;;;;;13.82;8.85;;;1.10;77.40;;;;;;4966091;28;20050;-67
2020/12/31 07:55:14;;;;;;;15.63;9.70;;;1.10;77.50;;;;;;4965688;28;20049;-69
2020/12/31 07:57:40;;;;;;;14.88;8.98;;;1.10;77.60;;;;;;4968964;28;20049;-68
2020/12/31 08:00:07;;;;;;;14.05;8.57;;;1.20;77.60;;;;;;4966098;28;20038;-69
2020/12/31 08:02:33;;;;;;;14.20;8.38;;;1.20;77.70;;;;;;4971148;28;20654;-68
2020/12/31 08:05:09;;;;;;;14.90;8.82;;;1.20;77.70;;;;;;4967375;28;20038;-68
2020/12/31 08:07:34;;;;;;;18.08;9.55;;;1.20;77.80;;;;;;4968076;28;20034;-68
2020/12/31 08:10:00;;;;;;;14.60;9.07;;;1.30;78.80;;;;;;4965257;28;20869;-69
2020/12/31 08:12:27;;;;;;;15.18;9.35;;;1.30;77.80;;;;;;4963574;28;20038;-68
2020/12/31 08:14:52;;;;;;;12.98;8.23;;;1.30;77.90;;;;;;4967420;28;20056;-68
2020/12/31 08:17:18;;;;;;;12.20;8.10;;;1.30;77.90;;;;;;4964168;28;20566;-68
2020/12/31 08:19:44;;;;;;;12.93;7.95;;;1.30;77.90;;;;;;4972595;28;20043;-67
2020/12/31 08:22:18;;;;;;;12.95;8.35;;;1.30;77.90;;;;;;4979467;28;20039;-68
2020/12/31 08:24:56;;;;;;;12.70;8.60;;;1.40;78.00;;;;;;4976766;28;20117;-70
2020/12/31 08:27:23;;;;;;;11.48;7.30;;;1.40;78.10;;;;;;4978072;28;20031;-67
2020/12/31 08:29:49;;;;;;;10.40;7.25;;;1.40;78.00;;;;;;4982540;28;20115;-70
2020/12/31 08:32:23;;;;;;;11.30;6.57;;;1.40;78.00;;;;;;4978592;28;20110;-68
2020/12/31 08:34:53;;;;;;;13.73;7.55;;;1.40;78.10;;;;;;4995349;28;20070;-69
2020/12/31 08:37:24;;;;;;;12.57;8.02;;;1.40;78.10;;;;;;4978215;28;20035;-68
2020/12/31 08:39:51;;;;;;;13.27;8.18;;;1.50;78.20;;;;;;4979949;28;20039;-69
2020/12/31 08:42:20;;;;;;;14.38;8.38;;;1.50;78.30;;;;;;4983143;28;20030;-68
2020/12/31 08:44:52;;;;;;;14.88;8.38;;;1.50;78.30;;;;;;4980850;28;20421;-68
2020/12/31 08:47:22;;;;;;;14.07;7.68;;;1.60;78.50;;;;;;4981243;28;20039;-68
2020/12/31 08:49:56;;;;;;;14.68;8.45;;;1.60;78.50;;;;;;4978674;28;20022;-68
2020/12/31 08:52:26;;;;;;;14.55;8.27;;;1.70;78.50;;;;;;4980037;28;20085;-68
2020/12/31 08:55:08;;;;;;;10.75;6.82;;;1.70;78.40;;;;;;4982870;28;20030;-67
2020/12/31 08:57:34;;;;;;;13.43;6.63;;;1.80;78.50;;;;;;4979962;28;20034;-68
2020/12/31 08:59:59;;;;;;;9.43;6.43;;;1.80;78.30;;;;;;4979550;28;20085;-68
2020/12/31 09:02:25;;;;;;;7.65;5.20;;;1.90;78.50;;;;;;4979542;28;20081;-67
2020/12/31 09:05:13;;;;;;;8.35;5.20;;;1.90;78.30;;;;;;4979924;28;20062;-68
2020/12/31 09:07:39;;;;;;;8.63;5.10;;;2.00;78.50;;;;;;4980514;28;20465;-68
2020/12/31 09:10:16;;;;;;;8.25;5.93;;;2.00;78.20;;;;;;4980931;28;20625;-69
2020/12/31 09:12:42;;;;;;;8.68;5.80;;;2.10;78.30;;;;;;4981722;28;20129;-68
2020/12/31 09:15:17;;;;;;;7.30;5.40;;;2.20;78.10;;;;;;4980392;28;20030;-68
2020/12/31 09:17:43;;;;;;;8.45;5.45;;;2.30;78.20;;;;;;4981235;28;20315;-68
2020/12/31 09:20:18;;;;;;;6.82;4.95;;;2.30;78.00;;;;;;4980792;28;20053;-68
2020/12/31 09:22:43;;;;;;;9.63;5.43;;;2.40;78.00;;;;;;4977515;28;20125;-67
2020/12/31 09:25:10;;;;;;;7.10;5.20;;;2.40;77.80;;;;;;4978334;28;20126;-67
2020/12/31 09:27:36;;;;;;;6.95;5.13;;;2.50;77.60;;;;;;4978096;28;20042;-68
2020/12/31 09:30:05;;;;;;;5.57;4.20;;;2.60;77.50;;;;;;4979298;28;20476;-67
2020/12/31 09:32:31;;;;;;;6.05;4.05;;;2.60;77.30;;;;;;4978834;28;20121;-68
2020/12/31 09:34:57;;;;;;;6.47;3.90;;;2.60;77.10;;;;;;4984672;28;20514;-67
2020/12/31 09:37:23;;;;;;;4.95;3.63;;;2.70;77.00;;;;;;4982314;28;20030;-67
2020/12/31 09:39:48;;;;;;;5.88;3.72;;;2.70;76.70;;;;;;4982427;28;20039;-68
2020/12/31 09:42:14;;;;;;;5.75;4.10;;;2.80;76.60;;;;;;4982912;28;20097;-68
2020/12/31 09:44:39;;;;;;;5.72;3.97;;;2.90;76.40;;;;;;4984073;28;20088;-68
2020/12/31 09:47:06;;;;;;;6.18;4.10;;;2.90;76.20;;;;;;4982766;28;20038;-67
2020/12/31 09:49:32;;;;;;;4.45;3.35;;;2.90;76.10;;;;;;4983516;28;20054;-68
2020/12/31 09:51:59;;;;;;;4.50;3.67;;;3.00;76.00;;;;;;4984390;28;20166;-67
2020/12/31 09:54:25;;;;;;;4.78;3.60;;;3.00;75.70;;;;;;4983919;28;20049;-67
2020/12/31 09:56:51;;;;;;;5.18;3.65;;;3.10;75.70;;;;;;4983160;28;20034;-67
2020/12/31 09:59:16;;;;;;;5.03;3.70;;;3.10;75.50;;;;;;4977308;28;20120;-67
2020/12/31 10:01:42;;;;;;;4.55;3.03;;;3.20;75.30;;;;;;4974367;28;20637;-68
2020/12/31 10:04:08;;;;;;;3.85;3.30;;;3.20;75.30;;;;;;4977487;28;20049;-69
2020/12/31 10:06:33;;;;;;;3.60;3.10;;;3.30;75.20;;;;;;4979074;28;20438;-65
2020/12/31 10:08:59;;;;;;;4.20;2.97;;;3.30;74.90;;;;;;4979315;28;20081;-65
2020/12/31 10:11:25;;;;;;;4.40;2.85;;;3.40;74.80;;;;;;4979379;28;20855;-65
2020/12/31 10:13:50;;;;;;;3.65;2.85;;;3.40;74.70;;;;;;4978515;28;20530;-65
2020/12/31 10:16:16;;;;;;;4.97;3.60;;;3.40;74.60;;;;;;4993562;28;20053;-65
2020/12/31 10:18:41;;;;;;;3.63;2.95;;;3.50;74.50;;;;;;4978885;28;20113;-66
2020/12/31 10:21:07;;;;;;;5.00;3.33;;;3.50;74.30;;;;;;4977204;28;20049;-64
2020/12/31 10:23:33;;;;;;;6.70;3.38;;;3.60;74.30;;;;;;4980923;28;20069;-65
2020/12/31 10:25:58;;;;;;;12.30;4.50;;;3.60;74.20;;;;;;4981364;28;20135;-65
2020/12/31 10:28:24;;;;;;;6.00;4.20;;;3.70;74.20;;;;;;4981454;28;20284;-65
2020/12/31 10:30:49;;;;;;;7.50;4.40;;;3.70;74.10;;;;;;4980380;28;20441;-65
2020/12/31 10:33:16;;;;;;;6.50;3.88;;;3.70;73.90;;;;;;4981538;28;20039;-65
2020/12/31 10:35:42;;;;;;;5.03;3.67;;;3.80;73.90;;;;;;4981580;28;20035;-66
2020/12/31 10:38:08;;;;;;;6.10;3.90;;;3.80;73.80;;;;;;4981205;28;20533;-65
2020/12/31 10:40:33;;;;;;;4.40;3.65;;;3.80;73.40;;;;;;4979204;28;20069;-65
2020/12/31 10:42:59;;;;;;;6.43;3.08;;;3.80;74.10;;;;;;4980528;28;20038;-65
2020/12/31 10:45:25;;;;;;;3.40;2.65;;;3.90;73.30;;;;;;4981149;28;20027;-65
2020/12/31 10:47:51;;;;;;;3.78;2.97;;;3.90;73.10;;;;;;4980634;28;20518;-64
2020/12/31 10:50:16;;;;;;;5.00;3.20;;;3.90;72.90;;;;;;4978735;28;20521;-66
2020/12/31 10:52:42;;;;;;;4.38;2.92;;;3.90;72.70;;;;;;4978418;28;20161;-66
2020/12/31 10:55:07;;;;;;;5.53;3.33;;;3.90;72.70;;;;;;4980178;28;20126;-65
2020/12/31 10:57:33;;;;;;;3.75;2.80;;;3.90;72.40;;;;;;4979946;28;20038;-65
2020/12/31 10:59:59;;;;;;;5.18;2.50;;;4.00;72.60;;;;;;4981716;28;20034;-66
2020/12/31 11:02:24;;;;;;;3.97;2.63;;;4.00;72.40;;;;;;4979188;28;20078;-66
2020/12/31 11:04:50;;;;;;;3.88;2.55;;;4.00;72.40;;;;;;4977095;28;20486;-66
2020/12/31 11:07:15;;;;;;;3.50;2.67;;;4.10;72.20;;;;;;4977017;28;20031;-66
2020/12/31 11:09:41;;;;;;;3.15;2.38;;;4.10;72.00;;;;;;4981093;28;20695;-66
2020/12/31 11:12:06;;;;;;;15.40;7.30;;;4.20;71.90;;;;;;4979339;28;20129;-66
2020/12/31 11:14:32;;;;;;;2.25;2.05;;;4.20;71.60;;;;;;4979940;28;20077;-66
2020/12/31 11:16:58;;;;;;;2.72;2.17;;;4.20;71.50;;;;;;4981332;28;20490;-65
2020/12/31 11:19:24;;;;;;;9.80;5.75;;;4.30;71.50;;;;;;4980827;28;20042;-66
2020/12/31 11:21:50;;;;;;;3.78;2.65;;;4.30;71.20;;;;;;4979523;28;20081;-65
2020/12/31 11:24:17;;;;;;;14.65;6.10;;;4.40;71.00;;;;;;4980149;28;20522;-66
2020/12/31 11:26:42;;;;;;;35.85;12.23;;;4.40;71.60;;;;;;4979357;28;20065;-65
2020/12/31 11:29:08;;;;;;;4.25;3.03;;;4.40;70.00;;;;;;4981028;28;20068;-66
2020/12/31 11:31:34;;;;;;;11.93;7.00;;;4.40;69.40;;;;;;4980666;28;20039;-65
2020/12/31 11:34:02;;;;;;;3.22;2.60;;;4.50;69.80;;;;;;4978507;28;20050;-66
2020/12/31 11:36:29;;;;;;;2.78;2.50;;;4.50;69.80;;;;;;4979489;28;20049;-66
2020/12/31 11:38:55;;;;;;;2.80;2.50;;;4.50;69.70;;;;;;4979831;28;20085;-65
2020/12/31 11:41:22;;;;;;;5.78;3.30;;;4.50;69.60;;;;;;4980722;28;20041;-66
2020/12/31 11:43:48;;;;;;;6.53;3.33;;;4.50;69.70;;;;;;4980905;28;20062;-66
2020/12/31 11:46:14;;;;;;;9.50;3.40;;;4.60;69.70;;;;;;4981019;28;20525;-66
2020/12/31 11:48:39;;;;;;;3.25;2.55;;;4.60;69.70;;;;;;4980032;28;20078;-65
2020/12/31 11:51:08;;;;;;;3.03;2.47;;;4.60;69.40;;;;;;4979962;28;20507;-65
2020/12/31 11:53:34;;;;;;;3.78;2.95;;;4.60;69.10;;;;;;4980650;28;20043;-66
2020/12/31 11:56:02;;;;;;;3.67;2.13;;;4.70;68.80;;;;;;4980545;28;20038;-66
2020/12/31 11:58:29;;;;;;;2.95;2.30;;;4.70;69.00;;;;;;4979097;28;20151;-66
2020/12/31 12:00:55;;;;;;;2.20;2.00;;;4.70;68.20;;;;;;4979695;28;20542;-66
2020/12/31 12:03:21;;;;;;;3.85;2.20;;;4.70;68.40;;;;;;4980638;28;20133;-66
2020/12/31 12:05:51;;;;;;;3.78;2.08;;;4.80;68.30;;;;;;4980029;28;20736;-66
2020/12/31 12:08:17;;;;;;;2.65;2.17;;;4.80;68.20;;;;;;4980583;28;20712;-65
2020/12/31 12:10:43;;;;;;;2.30;2.05;;;4.80;67.90;;;;;;4978142;28;20041;-66
2020/12/31 12:13:09;;;;;;;2.67;2.30;;;4.80;67.30;;;;;;4979793;28;20137;-66
2020/12/31 12:15:35;;;;;;;2.88;2.25;;;4.80;67.30;;;;;;4980226;28;20034;-66
2020/12/31 12:18:01;;;;;;;3.47;2.20;;;4.90;67.50;;;;;;4980746;28;20037;-66
2020/12/31 12:20:26;;;;;;;2.72;2.10;;;4.90;67.50;;;;;;4978265;28;20027;-66
2020/12/31 12:22:52;;;;;;;3.90;2.00;;;4.90;67.30;;;;;;4978284;28;20088;-65
2020/12/31 12:25:18;;;;;;;2.58;2.30;;;4.90;67.10;;;;;;4979973;28;20061;-66
2020/12/31 12:27:44;;;;;;;2.95;2.15;;;4.90;67.70;;;;;;4982261;28;20070;-65
2020/12/31 12:30:10;;;;;;;3.03;2.17;;;5.00;67.00;;;;;;4981054;28;20081;-66
2020/12/31 12:32:39;;;;;;;2.45;2.03;;;5.00;66.80;;;;;;4981127;28;20073;-66
2020/12/31 12:35:09;;;;;;;2.53;2.33;;;5.00;67.50;;;;;;4980758;28;20077;-66
2020/12/31 12:37:37;;;;;;;2.08;1.88;;;5.10;66.70;;;;;;4981724;28;20072;-66
2020/12/31 12:40:05;;;;;;;4.70;2.20;;;5.10;66.70;;;;;;4981148;28;20031;-66
2020/12/31 12:42:35;;;;;;;3.13;1.92;;;5.10;66.70;;;;;;4980461;28;20059;-66
2020/12/31 12:45:03;;;;;;;2.35;1.90;;;5.10;66.50;;;;;;4979488;28;20085;-66
2020/12/31 12:47:31;;;;;;;1.95;1.75;;;5.10;66.60;;;;;;4980048;28;20030;-66
2020/12/31 12:49:56;;;;;;;3.65;2.53;;;5.20;66.70;;;;;;4981422;28;20062;-66
2020/12/31 12:52:22;;;;;;;2.35;1.88;;;5.20;66.60;;;;;;4980315;28;20050;-67
2020/12/31 12:54:48;;;;;;;3.45;2.33;;;5.20;66.20;;;;;;4980019;28;20461;-66
2020/12/31 12:57:13;;;;;;;3.38;2.28;;;5.20;66.50;;;;;;4980079;28;20044;-66
2020/12/31 12:59:39;;;;;;;3.38;2.28;;;5.20;66.40;;;;;;4978608;28;20064;-67